createdAt,value
2019-01-26T00:02:06.957Z,53.13
2019-01-26T00:04:37.271Z,53.87
2019-01-26T00:07:07.957Z,54.30
2019-01-26T00:09:37.889Z,53.07
2019-01-26T00:12:08.349Z,56.57
2019-01-26T00:14:38.316Z,51.57
2019-01-26T00:17:08.625Z,52.47
2019-01-26T00:19:40.526Z,52.20
2019-01-26T00:22:10.828Z,53.63
2019-01-26T00:24:40.980Z,53.00
2019-01-26T00:27:13.799Z,54.60
2019-01-26T00:29:43.748Z,54.17
2019-01-26T00:32:14.029Z,51.83
2019-01-26T00:34:44.944Z,53.97
2019-01-26T00:37:15.112Z,48.83
2019-01-26T00:39:45.251Z,52.27
2019-01-26T00:42:15.347Z,49.40
2019-01-26T00:44:45.572Z,50.47
2019-01-26T00:47:15.783Z,48.83
2019-01-26T00:49:45.805Z,47.03
2019-01-26T00:52:15.853Z,48.40
2019-01-26T00:54:45.882Z,47.17
2019-01-26T00:57:16.112Z,48.47
2019-01-26T00:59:46.209Z,49.33
2019-01-26T01:02:17.551Z,51.90
2019-01-26T01:04:47.584Z,50.77
2019-01-26T01:07:17.712Z,52.87
2019-01-26T01:09:47.856Z,52.47
2019-01-26T01:12:18.105Z,54.43
2019-01-26T01:14:49.784Z,52.03
2019-01-26T01:17:20.433Z,54.93
2019-01-26T01:19:50.492Z,58.03
2019-01-26T01:22:21.837Z,56.20
2019-01-26T01:24:51.957Z,52.60
2019-01-26T01:27:21.988Z,60.37
2019-01-26T01:29:52.071Z,58.97
2019-01-26T01:32:22.359Z,54.33
2019-01-26T01:34:52.610Z,58.57
2019-01-26T01:37:22.662Z,57.00
2019-01-26T01:39:52.703Z,62.03
2019-01-26T01:42:22.893Z,60.10
2019-01-26T01:44:52.953Z,55.03
2019-01-26T01:47:23.135Z,57.73
2019-01-26T01:49:56.563Z,57.80
2019-01-26T01:52:27.518Z,56.80
2019-01-26T01:55:00.420Z,54.67
2019-01-26T01:57:30.663Z,53.93
2019-01-26T02:00:02.406Z,57.07
2019-01-26T02:02:33.920Z,53.53
2019-01-26T02:05:04.770Z,57.33
2019-01-26T02:07:34.973Z,56.87
2019-01-26T02:10:08.127Z,57.70
2019-01-26T02:12:39.674Z,57.57
2019-01-26T02:15:11.328Z,57.87
2019-01-26T02:17:43.162Z,55.10
2019-01-26T02:20:32.484Z,53.90
2019-01-26T02:23:02.499Z,55.47
2019-01-26T02:25:32.896Z,55.40
2019-01-26T02:28:03.039Z,55.37
2019-01-26T02:30:34.320Z,54.87
2019-01-26T02:33:04.428Z,55.03
2019-01-26T02:35:34.557Z,55.57
2019-01-26T02:38:04.929Z,54.67
2019-01-26T02:40:34.968Z,52.00
2019-01-26T02:43:05.180Z,52.30
2019-01-26T02:45:35.134Z,54.27
2019-01-26T02:48:05.399Z,54.13
2019-01-26T02:50:35.444Z,53.03
2019-01-26T02:53:06.533Z,51.20
2019-01-26T02:55:36.631Z,54.63
2019-01-26T02:58:07.463Z,50.10
2019-01-26T03:00:37.513Z,49.70
2019-01-26T03:03:07.560Z,49.47
2019-01-26T03:05:37.717Z,47.67
2019-01-26T03:08:07.944Z,51.43
2019-01-26T03:10:39.200Z,49.13
2019-01-26T03:13:09.338Z,49.50
2019-01-26T03:15:41.480Z,47.47
2019-01-26T03:18:13.049Z,46.97
2019-01-26T03:20:43.064Z,47.27
2019-01-26T03:23:13.243Z,45.77
2019-01-26T03:25:43.522Z,45.07
2019-01-26T03:28:13.707Z,44.60
2019-01-26T03:30:44.857Z,44.90
2019-01-26T03:33:15.137Z,46.20
2019-01-26T03:41:46.024Z,45.97
2019-01-26T03:44:16.157Z,46.57
2019-01-26T03:46:48.632Z,45.60
2019-01-26T03:49:18.834Z,46.97
2019-01-26T03:51:49.202Z,46.13
2019-01-26T03:54:19.447Z,44.20
2019-01-26T03:56:49.876Z,45.50
2019-01-26T03:59:20.476Z,45.70
2019-01-26T04:01:50.676Z,42.90
2019-01-26T04:04:21.032Z,44.30
2019-01-26T04:06:51.172Z,42.83
2019-01-26T04:09:24.434Z,42.53
2019-01-26T04:11:54.601Z,41.77
2019-01-26T04:14:24.584Z,42.83
2019-01-26T04:16:55.043Z,41.50
2019-01-26T04:19:27.036Z,44.80
2019-01-26T04:21:58.515Z,43.50
2019-01-26T04:24:28.502Z,41.73
2019-01-26T04:26:58.529Z,43.40
2019-01-26T04:29:28.608Z,43.97
2019-01-26T04:31:59.652Z,40.47
2019-01-26T04:34:30.831Z,40.13
2019-01-26T04:37:02.349Z,40.37
2019-01-26T04:39:32.348Z,38.63
2019-01-26T04:42:02.403Z,41.27
2019-01-26T04:44:32.542Z,41.20
2019-01-26T04:47:02.681Z,39.67
2019-01-26T04:49:32.719Z,38.43
2019-01-26T04:52:03.301Z,40.23
2019-01-26T04:54:33.285Z,41.40
2019-01-26T04:57:03.316Z,41.33
2019-01-26T04:59:33.272Z,39.57
2019-01-26T05:02:03.608Z,40.70
2019-01-26T05:04:33.751Z,38.17
2019-01-26T05:07:04.895Z,42.37
2019-01-26T05:09:35.123Z,40.13
2019-01-26T05:12:05.535Z,39.10
2019-01-26T05:14:35.602Z,41.33
2019-01-26T05:17:05.789Z,43.07
2019-01-26T05:19:36.041Z,40.70
2019-01-26T05:22:07.471Z,41.63
2019-01-26T05:24:37.747Z,40.47
2019-01-26T05:27:08.529Z,39.80
2019-01-26T05:29:38.487Z,39.63
2019-01-26T05:32:08.401Z,40.23
2019-01-26T05:34:38.518Z,41.10
2019-01-26T05:37:08.599Z,39.73
2019-01-26T05:39:38.796Z,38.77
2019-01-26T05:42:08.758Z,39.33
2019-01-26T05:44:38.864Z,38.97
2019-01-26T05:47:10.660Z,39.03
2019-01-26T05:49:40.788Z,38.80
2019-01-26T05:52:10.884Z,37.87
2019-01-26T05:54:42.029Z,36.07
2019-01-26T05:57:12.487Z,38.73
2019-01-26T05:59:42.413Z,36.87
2019-01-26T06:02:12.607Z,38.23
2019-01-26T06:04:42.605Z,38.83
2019-01-26T06:07:12.772Z,38.50
2019-01-26T06:09:42.726Z,36.03
2019-01-26T06:12:12.816Z,35.47
2019-01-26T06:14:42.875Z,35.63
2019-01-26T06:17:13.125Z,35.43
2019-01-26T06:19:43.537Z,35.60
2019-01-26T06:22:13.667Z,33.93
2019-01-26T06:24:43.828Z,34.63
2019-01-26T06:27:13.957Z,33.47
2019-01-26T06:29:44.171Z,33.07
2019-01-26T06:32:14.359Z,33.10
2019-01-26T06:34:45.886Z,33.23
2019-01-26T06:37:16.750Z,33.47
2019-01-26T06:39:46.739Z,31.50
2019-01-26T06:42:16.873Z,32.83
2019-01-26T06:44:51.230Z,32.47
2019-01-26T06:47:22.175Z,30.63
2019-01-26T06:49:52.321Z,29.77
2019-01-26T06:52:22.437Z,31.03
2019-01-26T06:54:52.598Z,31.83
2019-01-26T06:57:22.653Z,31.07
2019-01-26T06:59:54.357Z,29.87
2019-01-26T07:02:24.368Z,31.17
2019-01-26T07:04:57.426Z,31.00
2019-01-26T07:07:27.503Z,30.47
2019-01-26T07:09:57.556Z,31.23
2019-01-26T07:12:27.910Z,30.90
2019-01-26T07:14:57.945Z,30.83
2019-01-26T07:17:28.067Z,30.07
2019-01-26T07:19:59.479Z,30.07
2019-01-26T07:22:29.798Z,28.43
2019-01-26T07:24:59.873Z,27.97
2019-01-26T07:27:30.120Z,28.20
2019-01-26T07:30:00.229Z,27.57
2019-01-26T07:32:30.656Z,27.77
2019-01-26T07:35:00.694Z,28.13
2019-01-26T07:37:30.863Z,25.47
2019-01-26T07:40:03.909Z,24.73
2019-01-26T07:42:33.904Z,25.97
2019-01-26T07:45:04.590Z,25.97
2019-01-26T07:47:34.749Z,25.43
2019-01-26T07:50:07.433Z,24.57
2019-01-26T07:52:37.558Z,24.93
2019-01-26T07:55:10.192Z,25.63
2019-01-26T07:57:40.544Z,25.67
2019-01-26T08:00:27.961Z,26.77
2019-01-26T08:02:58.025Z,26.73
2019-01-26T08:05:29.509Z,27.47
2019-01-26T08:07:59.588Z,26.17
2019-01-26T08:10:29.741Z,26.70
2019-01-26T08:12:59.974Z,25.40
2019-01-26T08:15:32.721Z,25.40
2019-01-26T08:18:02.952Z,26.00
2019-01-26T08:20:33.833Z,25.13
2019-01-26T08:23:03.860Z,24.30
2019-01-26T08:25:33.956Z,24.67
2019-01-26T08:28:04.382Z,25.13
2019-01-26T08:30:34.560Z,25.57
2019-01-26T08:33:06.364Z,25.00
2019-01-26T08:35:36.486Z,26.27
2019-01-26T08:38:07.245Z,27.73
2019-01-26T08:40:37.364Z,31.00
2019-01-26T08:43:07.598Z,30.60
2019-01-26T08:45:37.707Z,29.47
2019-01-26T08:48:08.002Z,30.13
2019-01-26T08:50:37.948Z,29.03
2019-01-26T08:53:08.307Z,28.57
2019-01-26T08:55:38.288Z,29.33
2019-01-26T08:58:08.388Z,29.03
2019-01-26T09:00:39.948Z,29.73
2019-01-26T09:03:11.691Z,32.13
2019-01-26T09:05:52.433Z,29.63
2019-01-26T09:08:22.490Z,29.97
2019-01-26T09:10:52.560Z,30.27
2019-01-26T09:13:23.004Z,30.73
2019-01-26T09:15:53.426Z,31.63
2019-01-26T09:18:23.551Z,30.80
2019-01-26T09:20:53.787Z,29.97
2019-01-26T09:23:23.983Z,29.83
2019-01-26T09:25:54.030Z,29.03
2019-01-26T09:28:24.395Z,28.33
2019-01-26T09:30:54.645Z,29.23
2019-01-26T09:33:24.783Z,29.63
2019-01-26T09:35:54.746Z,29.40
2019-01-26T09:38:24.870Z,28.90
2019-01-26T09:40:55.063Z,29.43
2019-01-26T09:43:25.286Z,26.53
2019-01-26T09:45:55.308Z,29.63
2019-01-26T09:48:25.426Z,26.07
2019-01-26T09:50:57.029Z,28.90
2019-01-26T09:53:27.145Z,28.27
2019-01-26T09:55:58.552Z,27.87
2019-01-26T09:58:28.948Z,28.13
2019-01-26T10:00:59.035Z,27.43
2019-01-26T10:03:28.988Z,28.30
2019-01-26T10:05:59.109Z,27.43
2019-01-26T10:08:29.202Z,26.20
2019-01-26T10:10:59.724Z,27.50
2019-01-26T10:13:30.507Z,27.37
2019-01-26T10:16:00.551Z,27.63
2019-01-26T10:18:30.773Z,28.40
2019-01-26T10:21:01.550Z,29.20
2019-01-26T10:23:31.750Z,29.10
2019-01-26T10:26:02.034Z,38.23
2019-01-26T10:28:32.170Z,26.13
2019-01-26T10:31:02.393Z,27.90
2019-01-26T10:33:32.520Z,28.13
2019-01-26T10:36:04.347Z,29.67
2019-01-26T10:38:35.918Z,28.00
2019-01-26T10:41:08.816Z,28.93
2019-01-26T10:43:43.630Z,26.27
2019-01-26T10:46:15.336Z,29.63
2019-01-26T10:48:45.324Z,28.00
2019-01-26T10:51:16.106Z,30.83
2019-01-26T10:53:46.245Z,28.13
2019-01-26T10:56:16.590Z,29.63
2019-01-26T10:58:46.558Z,30.43
2019-01-26T11:01:16.637Z,29.60
2019-01-26T11:03:46.661Z,29.87
2019-01-26T11:06:16.853Z,30.73
2019-01-26T11:08:46.793Z,31.67
2019-01-26T11:11:19.243Z,30.63
2019-01-26T11:13:50.450Z,31.13
2019-01-26T11:16:20.670Z,33.73
2019-01-26T11:18:52.286Z,31.17
2019-01-26T11:21:22.564Z,28.47
2019-01-26T11:23:52.505Z,28.90
2019-01-26T11:26:23.077Z,26.97
2019-01-26T11:28:53.265Z,27.87
2019-01-26T11:31:23.847Z,30.60
2019-01-26T11:33:53.957Z,28.80
2019-01-26T11:36:24.098Z,30.17
2019-01-26T11:38:54.222Z,30.67
2019-01-26T11:41:24.351Z,30.43
2019-01-26T11:43:57.101Z,31.77
2019-01-26T11:46:27.512Z,32.30
2019-01-26T11:48:57.916Z,31.33
2019-01-26T11:51:32.756Z,33.83
2019-01-26T11:54:03.153Z,35.43
2019-01-26T11:56:44.562Z,33.27
2019-01-26T11:59:15.126Z,35.33
2019-01-26T12:01:47.088Z,35.20
2019-01-26T12:04:30.864Z,34.60
2019-01-26T12:07:02.509Z,35.33
2019-01-26T12:09:32.626Z,35.67
2019-01-26T12:12:02.797Z,35.23
2019-01-26T12:14:32.959Z,36.37
2019-01-26T12:17:03.283Z,37.00
2019-01-26T12:19:34.893Z,36.10
2019-01-26T12:22:05.495Z,37.73
2019-01-26T12:24:37.911Z,35.33
2019-01-26T12:27:09.128Z,35.20
2019-01-26T12:29:39.705Z,37.00
2019-01-26T12:32:09.843Z,37.60
2019-01-26T12:34:40.207Z,37.40
2019-01-26T12:37:10.473Z,37.70
2019-01-26T12:39:40.503Z,37.37
2019-01-26T12:42:10.690Z,38.37
2019-01-26T12:44:42.379Z,37.40
2019-01-26T12:47:16.913Z,37.23
2019-01-26T12:49:45.590Z,36.07
2019-01-26T12:52:16.003Z,37.53
2019-01-26T12:54:46.289Z,38.37
2019-01-26T12:57:18.103Z,36.40
2019-01-26T12:59:50.389Z,35.60
2019-01-26T13:02:20.352Z,37.50
2019-01-26T13:04:50.671Z,36.03
2019-01-26T13:07:20.951Z,38.43
2019-01-26T13:09:52.244Z,36.30
2019-01-26T13:12:22.452Z,36.93
2019-01-26T13:14:53.819Z,36.00
2019-01-26T13:17:26.910Z,36.17
2019-01-26T13:19:57.584Z,36.20
2019-01-26T13:22:29.869Z,36.63
2019-01-26T13:25:03.220Z,36.57
2019-01-26T13:27:34.771Z,38.67
2019-01-26T13:30:07.625Z,38.47
2019-01-26T13:32:38.027Z,39.10
2019-01-26T13:35:12.156Z,40.03
2019-01-26T13:37:42.423Z,40.57
2019-01-26T13:40:21.145Z,39.13
2019-01-26T13:42:51.135Z,41.07
2019-01-26T13:45:21.512Z,39.97
2019-01-26T13:47:54.473Z,40.77
2019-01-26T13:50:28.245Z,40.57
2019-01-26T13:52:59.769Z,42.33
2019-01-26T13:55:30.229Z,42.17
2019-01-26T13:58:00.509Z,42.23
2019-01-26T14:00:38.655Z,43.20
2019-01-26T14:03:14.810Z,42.50
2019-01-26T14:05:45.165Z,42.67
2019-01-26T14:08:15.643Z,42.03
2019-01-26T14:10:46.063Z,43.63
2019-01-26T14:13:16.424Z,43.30
2019-01-26T14:15:46.914Z,45.17
2019-01-26T14:18:17.692Z,43.83
2019-01-26T14:20:49.033Z,41.83
2019-01-26T14:23:21.319Z,44.10
2019-01-26T14:25:51.671Z,42.67
2019-01-26T14:28:23.518Z,42.53
2019-01-26T14:30:55.231Z,45.50
2019-01-26T14:33:25.524Z,44.17
2019-01-26T14:35:57.385Z,44.13
2019-01-26T14:38:28.485Z,42.90
2019-01-26T14:41:01.067Z,43.77
2019-01-26T14:43:31.607Z,44.60
2019-01-26T14:46:01.878Z,44.53
2019-01-26T14:48:39.569Z,44.60
2019-01-26T14:51:12.076Z,45.37
2019-01-26T14:53:47.604Z,43.63
2019-01-26T14:56:16.153Z,45.60
2019-01-26T14:58:48.377Z,45.47
2019-01-26T15:01:18.768Z,44.80
2019-01-26T15:03:49.536Z,43.47
2019-01-26T15:06:19.881Z,44.97
2019-01-26T15:08:50.112Z,46.70
2019-01-26T15:11:20.538Z,45.47
2019-01-26T15:13:56.906Z,47.23
2019-01-26T15:16:28.696Z,45.13
2019-01-26T15:18:58.987Z,45.57
2019-01-26T15:21:30.897Z,47.77
2019-01-26T15:24:01.314Z,47.63
2019-01-26T15:26:35.696Z,48.33
2019-01-26T15:29:07.374Z,46.07
2019-01-26T15:31:37.812Z,53.57
2019-01-26T15:34:10.637Z,52.27
2019-01-26T15:36:41.309Z,54.57
2019-01-26T15:39:13.099Z,48.73
2019-01-26T15:41:43.541Z,51.37
2019-01-26T15:44:13.938Z,50.70
2019-01-26T15:46:45.218Z,51.50
2019-01-26T15:49:15.647Z,53.43
2019-01-26T15:51:46.109Z,54.43
2019-01-26T15:54:16.872Z,53.70
2019-01-26T15:56:47.230Z,53.53
2019-01-26T15:59:17.426Z,52.97
2019-01-26T16:01:49.541Z,51.23
2019-01-26T16:04:22.493Z,52.40
2019-01-26T16:06:54.743Z,52.67
2019-01-26T16:09:25.069Z,52.73
2019-01-26T16:11:56.303Z,51.43
2019-01-26T16:14:28.148Z,52.77
2019-01-26T16:16:59.108Z,51.13
2019-01-26T16:19:50.052Z,50.67
2019-01-26T16:22:20.791Z,47.30
2019-01-26T16:24:51.130Z,46.53
2019-01-26T16:27:21.533Z,48.23
2019-01-26T16:29:52.313Z,49.13
2019-01-26T16:32:22.763Z,47.60
2019-01-26T16:34:53.551Z,43.33
2019-01-26T16:37:49.966Z,45.87
2019-01-26T16:40:26.374Z,45.10
2019-01-26T16:42:58.805Z,43.00
2019-01-26T16:45:35.102Z,43.07
2019-01-26T16:48:08.293Z,43.37
2019-01-26T16:50:40.174Z,43.37
2019-01-26T16:53:13.581Z,42.83
2019-01-26T16:55:46.674Z,45.13
2019-01-26T16:58:21.307Z,43.57
2019-01-26T17:00:51.885Z,44.00
2019-01-26T17:03:24.541Z,44.37
2019-01-26T17:05:57.556Z,42.53
2019-01-26T17:08:29.600Z,42.20
2019-01-26T17:11:01.426Z,42.47
2019-01-26T17:13:32.714Z,41.70
2019-01-26T17:16:03.630Z,41.80
2019-01-26T17:18:36.311Z,40.77
2019-01-26T17:21:11.842Z,40.87
2019-01-26T17:23:47.413Z,36.60
2019-01-26T17:26:18.004Z,38.17
2019-01-26T17:28:49.619Z,37.77
2019-01-26T17:31:20.331Z,39.40
2019-01-26T17:33:52.174Z,36.73
2019-01-26T17:36:24.771Z,37.50
2019-01-26T17:38:55.933Z,38.70
2019-01-26T17:41:29.437Z,38.73
2019-01-26T17:44:02.399Z,38.23
2019-01-26T17:46:35.547Z,39.30
2019-01-26T17:49:10.476Z,37.40
2019-01-26T17:51:42.240Z,36.93
2019-01-26T17:54:14.615Z,36.03
2019-01-26T17:56:47.124Z,36.77
2019-01-26T17:59:17.964Z,37.37
2019-01-26T18:01:48.778Z,36.87
2019-01-26T18:04:19.679Z,38.13
2019-01-26T18:06:50.504Z,36.93
2019-01-26T18:09:21.810Z,38.30
2019-01-26T18:11:52.348Z,37.97
2019-01-26T18:14:24.688Z,37.90
2019-01-26T18:16:56.488Z,37.33
2019-01-26T18:19:28.339Z,36.77
2019-01-26T18:21:58.794Z,36.20
2019-01-26T18:24:48.912Z,37.43
2019-01-26T18:27:19.410Z,38.27
2019-01-26T18:29:50.070Z,40.10
2019-01-26T18:32:20.987Z,38.77
2019-01-26T18:34:53.686Z,39.67
2019-01-26T18:37:25.202Z,40.20
2019-01-26T18:40:21.212Z,39.70
2019-01-26T18:42:53.144Z,39.27
2019-01-26T18:45:26.723Z,39.60
2019-01-26T18:47:57.199Z,39.43
2019-01-26T18:50:45.107Z,44.43
2019-01-26T18:53:18.728Z,49.93
2019-01-26T18:55:49.460Z,50.97
2019-01-26T18:58:20.535Z,51.47
2019-01-26T19:00:52.295Z,53.93
2019-01-26T19:03:26.158Z,54.00
2019-01-26T19:06:00.350Z,53.40
2019-01-26T19:08:31.716Z,53.23
2019-01-26T19:11:02.848Z,53.60
2019-01-26T19:13:34.681Z,53.33
2019-01-26T19:16:06.453Z,50.00
2019-01-26T19:18:37.491Z,53.90
2019-01-26T19:21:09.300Z,54.53
2019-01-26T19:23:41.051Z,53.53
2019-01-26T19:26:11.981Z,55.43
2019-01-26T19:28:43.815Z,56.33
2019-01-26T19:31:14.990Z,57.47
2019-01-26T19:33:47.677Z,59.33
2019-01-26T19:36:20.401Z,60.53
2019-01-26T19:38:51.803Z,59.37
2019-01-26T19:41:22.490Z,59.30
2019-01-26T19:43:54.193Z,57.37
2019-01-26T19:46:26.659Z,57.07
2019-01-26T19:48:59.246Z,59.37
2019-01-26T19:51:32.446Z,58.67
2019-01-26T19:54:07.626Z,61.07
2019-01-26T19:56:40.778Z,59.80
2019-01-26T19:59:12.479Z,61.70
2019-01-26T20:01:43.364Z,62.97
2019-01-26T20:04:15.127Z,62.37
2019-01-26T20:06:46.974Z,61.33
2019-01-26T20:09:18.831Z,62.43
2019-01-26T20:11:51.926Z,62.97
2019-01-26T20:14:22.954Z,62.30
2019-01-26T20:16:56.697Z,63.07
2019-01-26T20:19:31.319Z,63.47
2019-01-26T20:22:02.882Z,60.53
2019-01-26T20:24:33.245Z,60.83
2019-01-26T20:27:03.934Z,63.47
2019-01-26T20:29:35.779Z,64.37
2019-01-26T20:32:06.652Z,63.17
2019-01-26T20:34:37.123Z,62.57
2019-01-26T20:37:08.206Z,61.63
2019-01-26T20:39:40.765Z,64.03
2019-01-26T20:42:11.366Z,63.13
2019-01-26T20:44:42.528Z,61.50
2019-01-26T20:47:13.276Z,61.93
2019-01-26T20:49:43.543Z,60.90
2019-01-26T20:52:14.001Z,62.27
2019-01-26T20:54:44.418Z,55.33
2019-01-26T20:57:14.931Z,54.93
2019-01-26T20:59:45.397Z,55.47
2019-01-26T21:02:17.966Z,56.17
2019-01-26T21:04:48.493Z,54.37
2019-01-26T21:07:20.110Z,54.23
2019-01-26T21:09:50.625Z,50.93
2019-01-26T21:12:21.440Z,55.73
2019-01-26T21:14:52.314Z,54.20
2019-01-26T21:17:23.536Z,56.30
2019-01-26T21:19:54.069Z,53.23
2019-01-26T21:22:24.751Z,54.93
2019-01-26T21:24:56.676Z,54.00
2019-01-26T21:27:28.445Z,56.93
2019-01-26T21:29:58.935Z,51.83
2019-01-26T21:32:29.661Z,54.77
2019-01-26T21:34:59.885Z,56.07
2019-01-26T21:37:30.242Z,53.10
2019-01-26T21:40:00.914Z,55.00
2019-01-26T21:42:33.061Z,51.37
2019-01-26T21:45:07.402Z,54.90
2019-01-26T21:47:37.787Z,52.57
2019-01-26T21:50:16.965Z,53.73
2019-01-26T21:52:47.421Z,55.47
2019-01-26T21:55:17.883Z,53.70
2019-01-26T21:57:48.054Z,53.57
2019-01-26T22:00:39.090Z,53.77
2019-01-26T22:03:10.846Z,53.13
2019-01-26T22:05:41.208Z,53.73
2019-01-26T22:08:11.493Z,55.17
2019-01-26T22:10:42.343Z,54.07
2019-01-26T22:13:12.788Z,53.70
2019-01-26T22:15:42.852Z,52.80
2019-01-26T22:18:13.027Z,52.17
2019-01-26T22:20:43.290Z,53.20
2019-01-26T22:23:13.808Z,53.87
2019-01-26T22:25:44.365Z,53.90
2019-01-26T22:28:14.852Z,54.13
2019-01-26T22:30:45.159Z,54.47
2019-01-26T22:33:15.270Z,54.70
2019-01-26T22:35:45.383Z,53.67
2019-01-26T22:38:15.709Z,53.13
2019-01-26T22:40:47.110Z,51.87
2019-01-26T22:43:38.429Z,53.20
2019-01-26T22:46:08.670Z,54.97
2019-01-26T22:48:38.961Z,55.63
2019-01-26T22:51:09.334Z,54.60
2019-01-26T22:53:39.565Z,55.83
2019-01-26T22:56:09.855Z,54.70
2019-01-26T22:58:40.224Z,55.73
2019-01-26T23:01:13.343Z,54.67
2019-01-26T23:03:53.247Z,55.07
2019-01-26T23:06:35.324Z,54.73
2019-01-26T23:09:15.298Z,54.40
2019-01-26T23:11:58.277Z,53.27
2019-01-26T23:14:37.906Z,54.73
2019-01-26T23:17:22.972Z,55.40
2019-01-26T23:19:58.941Z,54.53
2019-01-26T23:22:48.570Z,55.67
2019-01-26T23:25:30.535Z,56.77
2019-01-26T23:28:12.749Z,57.90
2019-01-26T23:31:08.519Z,56.53
2019-01-26T23:33:40.739Z,56.03
2019-01-26T23:36:12.283Z,56.60
2019-01-26T23:38:43.192Z,56.73
2019-01-26T23:41:13.980Z,57.43
2019-01-26T23:43:44.818Z,55.67
2019-01-26T23:46:15.678Z,55.83
2019-01-26T23:48:46.265Z,56.30
2019-01-26T23:51:18.215Z,56.57
2019-01-26T23:53:48.729Z,58.33
2019-01-26T23:56:19.698Z,63.20
2019-01-26T23:58:50.379Z,60.67
